sensor_id;sensor_type;location;lat;lon;timestamp;pressure;altitude;pressure_sealevel;temperature;humidity
3250;BME280;1637;42.020;23.992;2023-08-01T00:01:53;92594.63;;;18.29;100.00
3250;BME280;1637;42.020;23.992;2023-08-01T00:04:20;92602.00;;;18.47;100.00
3250;BME280;1637;42.020;23.992;2023-08-01T00:06:47;92600.50;;;18.46;100.00
3250;BME280;1637;42.020;23.992;2023-08-01T00:09:15;92592.00;;;18.80;100.00
3250;BME280;1637;42.020;23.992;2023-08-01T00:11:42;92600.03;;;19.08;100.00
3250;BME280;1637;42.020;23.992;2023-08-01T00:14:08;92595.94;;;19.12;100.00
3250;BME280;1637;42.020;23.992;2023-08-01T00:16:35;92600.81;;;18.99;100.00
3250;BME280;1637;42.020;23.992;2023-08-01T00:19:02;92593.66;;;18.78;100.00
3250;BME280;1637;42.020;23.992;2023-08-01T00:21:29;92597.91;;;18.70;100.00
3250;BME280;1637;42.020;23.992;2023-08-01T00:23:57;92592.97;;;18.59;100.00
3250;BME280;1637;42.020;23.992;2023-08-01T00:26:25;92598.53;;;18.65;100.00
3250;BME280;1637;42.020;23.992;2023-08-01T00:28:52;92590.06;;;18.53;100.00
3250;BME280;1637;42.020;23.992;2023-08-01T00:31:19;92591.91;;;18.47;100.00
3250;BME280;1637;42.020;23.992;2023-08-01T00:33:46;92586.34;;;18.42;100.00
3250;BME280;1637;42.020;23.992;2023-08-01T00:36:12;92584.69;;;18.44;100.00
3250;BME280;1637;42.020;23.992;2023-08-01T00:38:39;92582.09;;;18.50;100.00
3250;BME280;1637;42.020;23.992;2023-08-01T00:41:08;92579.69;;;18.52;100.00
3250;BME280;1637;42.020;23.992;2023-08-01T00:43:36;92572.94;;;18.29;100.00
3250;BME280;1637;42.020;23.992;2023-08-01T00:46:05;92568.56;;;18.32;100.00
3250;BME280;1637;42.020;23.992;2023-08-01T00:48:32;92538.84;;;17.86;100.00
3250;BME280;1637;42.020;23.992;2023-08-01T00:51:01;92563.97;;;17.87;100.00
3250;BME280;1637;42.020;23.992;2023-08-01T00:53:30;92565.47;;;17.97;100.00
3250;BME280;1637;42.020;23.992;2023-08-01T00:55:57;92567.72;;;17.89;100.00
3250;BME280;1637;42.020;23.992;2023-08-01T00:58:25;92558.22;;;18.12;100.00
3250;BME280;1637;42.020;23.992;2023-08-01T01:00:53;92562.84;;;18.48;100.00
3250;BME280;1637;42.020;23.992;2023-08-01T01:03:21;92565.09;;;18.49;100.00
3250;BME280;1637;42.020;23.992;2023-08-01T01:05:53;92553.78;;;18.60;100.00
3250;BME280;1637;42.020;23.992;2023-08-01T01:08:22;92559.94;;;18.51;100.00
3250;BME280;1637;42.020;23.992;2023-08-01T01:10:49;92551.53;;;18.49;100.00
3250;BME280;1637;42.020;23.992;2023-08-01T01:13:16;92550.03;;;18.48;100.00
3250;BME280;1637;42.020;23.992;2023-08-01T01:15:43;92539.28;;;18.54;100.00
3250;BME280;1637;42.020;23.992;2023-08-01T01:18:11;92546.41;;;18.61;100.00
3250;BME280;1637;42.020;23.992;2023-08-01T01:20:39;92517.81;;;18.41;100.00
3250;BME280;1637;42.020;23.992;2023-08-01T01:23:08;92526.13;;;18.29;100.00
3250;BME280;1637;42.020;23.992;2023-08-01T01:25:36;92501.94;;;18.07;100.00
3250;BME280;1637;42.020;23.992;2023-08-01T01:28:04;92526.97;;;18.44;100.00
3250;BME280;1637;42.020;23.992;2023-08-01T01:30:33;92527.16;;;18.31;100.00
3250;BME280;1637;42.020;23.992;2023-08-01T01:33:00;92527.50;;;18.24;100.00
3250;BME280;1637;42.020;23.992;2023-08-01T01:35:29;92526.28;;;18.25;100.00
3250;BME280;1637;42.020;23.992;2023-08-01T01:37:57;92523.56;;;18.25;100.00
3250;BME280;1637;42.020;23.992;2023-08-01T01:40:27;92521.81;;;18.04;100.00
3250;BME280;1637;42.020;23.992;2023-08-01T01:42:54;92529.19;;;18.03;100.00
3250;BME280;1637;42.020;23.992;2023-08-01T01:45:20;92509.63;;;17.81;100.00
3250;BME280;1637;42.020;23.992;2023-08-01T01:47:47;92522.28;;;17.84;100.00
3250;BME280;1637;42.020;23.992;2023-08-01T01:50:14;92512.94;;;17.85;100.00
3250;BME280;1637;42.020;23.992;2023-08-01T01:52:41;92515.03;;;17.90;100.00
3250;BME280;1637;42.020;23.992;2023-08-01T01:55:09;92519.84;;;17.95;100.00
3250;BME280;1637;42.020;23.992;2023-08-01T01:57:36;92507.84;;;17.87;100.00
3250;BME280;1637;42.020;23.992;2023-08-01T02:00:03;92518.75;;;18.11;100.00
3250;BME280;1637;42.020;23.992;2023-08-01T02:02:30;92524.09;;;17.87;100.00
3250;BME280;1637;42.020;23.992;2023-08-01T02:04:57;92518.94;;;17.98;100.00
3250;BME280;1637;42.020;23.992;2023-08-01T02:07:24;92488.41;;;17.70;100.00
3250;BME280;1637;42.020;23.992;2023-08-01T02:09:50;92523.63;;;17.70;100.00
3250;BME280;1637;42.020;23.992;2023-08-01T02:12:19;92520.59;;;17.50;100.00
3250;BME280;1637;42.020;23.992;2023-08-01T02:14:45;92517.88;;;17.50;100.00
3250;BME280;1637;42.020;23.992;2023-08-01T02:17:12;92528.09;;;17.37;100.00
3250;BME280;1637;42.020;23.992;2023-08-01T02:19:39;92526.75;;;17.50;100.00
3250;BME280;1637;42.020;23.992;2023-08-01T02:22:06;92530.84;;;17.73;100.00
3250;BME280;1637;42.020;23.992;2023-08-01T02:24:33;92540.63;;;17.80;100.00
3250;BME280;1637;42.020;23.992;2023-08-01T02:26:59;92580.97;;;17.78;100.00
3250;BME280;1637;42.020;23.992;2023-08-01T02:29:28;92521.97;;;17.64;100.00
3250;BME280;1637;42.020;23.992;2023-08-01T02:31:54;92524.69;;;17.73;100.00
3250;BME280;1637;42.020;23.992;2023-08-01T02:34:21;92511.28;;;17.78;100.00
3250;BME280;1637;42.020;23.992;2023-08-01T02:36:48;92534.31;;;17.74;100.00
3250;BME280;1637;42.020;23.992;2023-08-01T02:39:15;92537.16;;;17.70;100.00
3250;BME280;1637;42.020;23.992;2023-08-01T02:41:42;92539.28;;;17.75;100.00
3250;BME280;1637;42.020;23.992;2023-08-01T02:44:08;92497.44;;;17.76;100.00
3250;BME280;1637;42.020;23.992;2023-08-01T02:46:37;92544.06;;;17.44;100.00
3250;BME280;1637;42.020;23.992;2023-08-01T02:49:03;92544.34;;;17.46;100.00
3250;BME280;1637;42.020;23.992;2023-08-01T02:51:29;92513.34;;;17.20;100.00
3250;BME280;1637;42.020;23.992;2023-08-01T02:53:56;92536.50;;;17.21;100.00
3250;BME280;1637;42.020;23.992;2023-08-01T02:56:23;92535.56;;;17.05;100.00
3250;BME280;1637;42.020;23.992;2023-08-01T02:58:49;92535.44;;;17.18;100.00
3250;BME280;1637;42.020;23.992;2023-08-01T03:01:17;92547.34;;;17.21;100.00
3250;BME280;1637;42.020;23.992;2023-08-01T03:03:45;92545.53;;;17.27;100.00
3250;BME280;1637;42.020;23.992;2023-08-01T03:06:12;92536.66;;;17.17;100.00
3250;BME280;1637;42.020;23.992;2023-08-01T03:08:39;92543.22;;;17.07;100.00
3250;BME280;1637;42.020;23.992;2023-08-01T03:11:06;92545.41;;;17.39;100.00
3250;BME280;1637;42.020;23.992;2023-08-01T03:13:33;92551.41;;;17.34;100.00
3250;BME280;1637;42.020;23.992;2023-08-01T03:16:00;92546.44;;;17.33;100.00
3250;BME280;1637;42.020;23.992;2023-08-01T03:18:26;92543.16;;;17.47;100.00
3250;BME280;1637;42.020;23.992;2023-08-01T03:20:55;92546.50;;;17.69;100.00
3250;BME280;1637;42.020;23.992;2023-08-01T03:23:22;92544.25;;;17.68;100.00
3250;BME280;1637;42.020;23.992;2023-08-01T03:25:48;92545.91;;;17.74;100.00
3250;BME280;1637;42.020;23.992;2023-08-01T03:28:15;92544.84;;;17.81;100.00
3250;BME280;1637;42.020;23.992;2023-08-01T03:30:42;92537.78;;;17.74;100.00
3250;BME280;1637;42.020;23.992;2023-08-01T03:33:09;92552.34;;;17.59;100.00
3250;BME280;1637;42.020;23.992;2023-08-01T03:35:36;92555.09;;;17.77;100.00
3250;BME280;1637;42.020;23.992;2023-08-01T03:38:04;92559.16;;;18.00;100.00
3250;BME280;1637;42.020;23.992;2023-08-01T03:40:31;92555.50;;;17.57;100.00
3250;BME280;1637;42.020;23.992;2023-08-01T03:42:58;92551.47;;;17.80;100.00
3250;BME280;1637;42.020;23.992;2023-08-01T03:45:24;92554.03;;;17.74;100.00
3250;BME280;1637;42.020;23.992;2023-08-01T03:47:51;92554.63;;;17.97;100.00
3250;BME280;1637;42.020;23.992;2023-08-01T03:50:18;92560.31;;;17.62;100.00
3250;BME280;1637;42.020;23.992;2023-08-01T03:52:45;92563.03;;;17.62;100.00
3250;BME280;1637;42.020;23.992;2023-08-01T03:55:13;92558.78;;;17.34;100.00
3250;BME280;1637;42.020;23.992;2023-08-01T03:57:40;92555.03;;;17.49;100.00
3250;BME280;1637;42.020;23.992;2023-08-01T04:00:08;92558.94;;;17.48;100.00
3250;BME280;1637;42.020;23.992;2023-08-01T04:02:39;92560.16;;;17.47;100.00
3250;BME280;1637;42.020;23.992;2023-08-01T04:05:06;92561.22;;;17.41;100.00
3250;BME280;1637;42.020;23.992;2023-08-01T04:07:34;92564.66;;;17.41;100.00
3250;BME280;1637;42.020;23.992;2023-08-01T04:10:01;92571.63;;;17.70;100.00
3250;BME280;1637;42.020;23.992;2023-08-01T04:12:31;92567.72;;;17.98;99.20
3250;BME280;1637;42.020;23.992;2023-08-01T04:14:58;92569.59;;;18.52;95.27
3250;BME280;1637;42.020;23.992;2023-08-01T04:17:25;92571.38;;;18.55;93.56
3250;BME280;1637;42.020;23.992;2023-08-01T04:19:52;92571.63;;;18.15;96.54
3250;BME280;1637;42.020;23.992;2023-08-01T04:22:19;92561.41;;;17.74;99.55
3250;BME280;1637;42.020;23.992;2023-08-01T04:24:46;92565.13;;;17.58;100.00
3250;BME280;1637;42.020;23.992;2023-08-01T04:27:13;92568.56;;;18.32;98.57
3250;BME280;1637;42.020;23.992;2023-08-01T04:29:41;92576.91;;;18.79;92.46
3250;BME280;1637;42.020;23.992;2023-08-01T04:32:07;92576.31;;;19.50;88.89
3250;BME280;1637;42.020;23.992;2023-08-01T04:34:36;92588.59;;;20.23;83.44
3250;BME280;1637;42.020;23.992;2023-08-01T04:37:03;92579.66;;;20.76;80.78
3250;BME280;1637;42.020;23.992;2023-08-01T04:39:30;92580.03;;;20.54;80.56
3250;BME280;1637;42.020;23.992;2023-08-01T04:41:57;92587.75;;;21.20;78.07
3250;BME280;1637;42.020;23.992;2023-08-01T04:44:24;92582.09;;;21.38;75.48
3250;BME280;1637;42.020;23.992;2023-08-01T04:46:52;92593.25;;;21.75;74.66
3250;BME280;1637;42.020;23.992;2023-08-01T04:49:18;92594.69;;;22.57;70.88
3250;BME280;1637;42.020;23.992;2023-08-01T04:51:45;92587.88;;;21.46;73.74
3250;BME280;1637;42.020;23.992;2023-08-01T04:54:12;92590.72;;;21.72;74.74
3250;BME280;1637;42.020;23.992;2023-08-01T04:56:39;92584.59;;;21.97;72.89
3250;BME280;1637;42.020;23.992;2023-08-01T04:59:05;92589.81;;;22.93;71.03
3250;BME280;1637;42.020;23.992;2023-08-01T05:01:33;92594.78;;;22.69;71.06
3250;BME280;1637;42.020;23.992;2023-08-01T05:04:01;92597.16;;;22.55;72.50
3250;BME280;1637;42.020;23.992;2023-08-01T05:06:28;92592.41;;;23.08;70.90
3250;BME280;1637;42.020;23.992;2023-08-01T05:08:55;92593.00;;;22.86;71.58
3250;BME280;1637;42.020;23.992;2023-08-01T05:11:21;92593.97;;;22.83;71.94
3250;BME280;1637;42.020;23.992;2023-08-01T05:13:48;92589.06;;;22.41;73.81
3250;BME280;1637;42.020;23.992;2023-08-01T05:16:15;92594.72;;;22.37;74.19
3250;BME280;1637;42.020;23.992;2023-08-01T05:18:42;92599.34;;;22.51;73.63
3250;BME280;1637;42.020;23.992;2023-08-01T05:21:10;92592.84;;;22.23;74.74
3250;BME280;1637;42.020;23.992;2023-08-01T05:23:37;92594.56;;;22.46;74.66
3250;BME280;1637;42.020;23.992;2023-08-01T05:26:04;92591.38;;;22.02;75.88
3250;BME280;1637;42.020;23.992;2023-08-01T05:28:30;92596.22;;;22.38;74.25
3250;BME280;1637;42.020;23.992;2023-08-01T05:30:57;92596.66;;;22.31;75.13
3250;BME280;1637;42.020;23.992;2023-08-01T05:33:24;92595.53;;;22.43;75.04
3250;BME280;1637;42.020;23.992;2023-08-01T05:35:51;92590.81;;;22.70;73.60
3250;BME280;1637;42.020;23.992;2023-08-01T05:38:19;92602.53;;;23.33;71.54
3250;BME280;1637;42.020;23.992;2023-08-01T05:40:46;92601.97;;;23.55;69.62
3250;BME280;1637;42.020;23.992;2023-08-01T05:43:13;92599.38;;;24.31;67.17
3250;BME280;1637;42.020;23.992;2023-08-01T05:45:39;92589.97;;;24.77;66.26
3250;BME280;1637;42.020;23.992;2023-08-01T05:48:06;92599.94;;;24.80;65.01
3250;BME280;1637;42.020;23.992;2023-08-01T05:50:33;92606.97;;;25.03;64.66
3250;BME280;1637;42.020;23.992;2023-08-01T05:53:00;92596.94;;;25.84;62.05
3250;BME280;1637;42.020;23.992;2023-08-01T05:55:28;92592.75;;;25.72;61.62
3250;BME280;1637;42.020;23.992;2023-08-01T05:57:55;92596.19;;;25.78;62.87
3250;BME280;1637;42.020;23.992;2023-08-01T06:00:22;92604.78;;;26.32;59.59
3250;BME280;1637;42.020;23.992;2023-08-01T06:02:48;92605.47;;;26.44;58.83
3250;BME280;1637;42.020;23.992;2023-08-01T06:05:15;92596.78;;;26.34;59.14
3250;BME280;1637;42.020;23.992;2023-08-01T06:07:42;92596.44;;;26.54;58.79
3250;BME280;1637;42.020;23.992;2023-08-01T06:10:09;92591.72;;;26.90;57.88
3250;BME280;1637;42.020;23.992;2023-08-01T06:12:37;92597.13;;;27.07;57.20
3250;BME280;1637;42.020;23.992;2023-08-01T06:15:05;92592.13;;;27.41;56.06
3250;BME280;1637;42.020;23.992;2023-08-01T06:17:32;92599.19;;;28.10;54.39
3250;BME280;1637;42.020;23.992;2023-08-01T06:19:59;92592.84;;;27.71;54.14
3250;BME280;1637;42.020;23.992;2023-08-01T06:22:29;92586.25;;;27.50;55.17
3250;BME280;1637;42.020;23.992;2023-08-01T06:24:55;92575.88;;;27.92;54.33
3250;BME280;1637;42.020;23.992;2023-08-01T06:27:22;92583.19;;;28.08;55.11
3250;BME280;1637;42.020;23.992;2023-08-01T06:29:50;92578.19;;;28.31;53.21
3250;BME280;1637;42.020;23.992;2023-08-01T06:32:17;92573.88;;;28.92;50.66
3250;BME280;1637;42.020;23.992;2023-08-01T06:34:44;92570.81;;;28.39;52.70
3250;BME280;1637;42.020;23.992;2023-08-01T06:37:11;92572.25;;;28.64;53.02
3250;BME280;1637;42.020;23.992;2023-08-01T06:39:37;92565.09;;;28.37;52.11
3250;BME280;1637;42.020;23.992;2023-08-01T06:42:05;92572.81;;;28.20;53.06
3250;BME280;1637;42.020;23.992;2023-08-01T06:44:32;92564.13;;;28.10;53.64
3250;BME280;1637;42.020;23.992;2023-08-01T06:47:00;92564.13;;;28.34;51.64
3250;BME280;1637;42.020;23.992;2023-08-01T06:49:27;92569.63;;;28.91;52.18
3250;BME280;1637;42.020;23.992;2023-08-01T06:51:54;92565.25;;;29.14;49.88
3250;BME280;1637;42.020;23.992;2023-08-01T06:54:21;92558.97;;;27.82;51.59
3250;BME280;1637;42.020;23.992;2023-08-01T06:56:47;92549.50;;;26.88;55.12
3250;BME280;1637;42.020;23.992;2023-08-01T06:59:14;92560.31;;;28.37;52.79
3250;BME280;1637;42.020;23.992;2023-08-01T07:01:41;92564.88;;;29.23;49.51
3250;BME280;1637;42.020;23.992;2023-08-01T07:04:10;92565.44;;;30.33;46.35
3250;BME280;1637;42.020;23.992;2023-08-01T07:06:37;92561.53;;;28.42;49.98
3250;BME280;1637;42.020;23.992;2023-08-01T07:09:04;92563.84;;;29.98;46.72
3250;BME280;1637;42.020;23.992;2023-08-01T07:11:31;92568.19;;;30.80;44.89
3250;BME280;1637;42.020;23.992;2023-08-01T07:13:58;92553.09;;;30.34;44.61
3250;BME280;1637;42.020;23.992;2023-08-01T07:16:24;92555.88;;;30.07;45.33
3250;BME280;1637;42.020;23.992;2023-08-01T07:18:51;92558.50;;;30.39;44.28
3250;BME280;1637;42.020;23.992;2023-08-01T07:21:19;92555.75;;;30.26;44.37
3250;BME280;1637;42.020;23.992;2023-08-01T07:23:46;92555.66;;;30.19;45.17
3250;BME280;1637;42.020;23.992;2023-08-01T07:26:14;92553.88;;;30.08;44.36
3250;BME280;1637;42.020;23.992;2023-08-01T07:28:40;92550.38;;;30.07;46.72
3250;BME280;1637;42.020;23.992;2023-08-01T07:31:10;92562.28;;;30.76;43.88
3250;BME280;1637;42.020;23.992;2023-08-01T07:33:37;92557.44;;;30.42;45.40
3250;BME280;1637;42.020;23.992;2023-08-01T07:36:04;92553.94;;;30.16;45.16
3250;BME280;1637;42.020;23.992;2023-08-01T07:38:32;92548.63;;;30.78;42.85
3250;BME280;1637;42.020;23.992;2023-08-01T07:41:02;92549.69;;;30.28;43.76
3250;BME280;1637;42.020;23.992;2023-08-01T07:43:30;92546.47;;;31.18;41.96
3250;BME280;1637;42.020;23.992;2023-08-01T07:45:57;92516.50;;;31.09;42.15
3250;BME280;1637;42.020;23.992;2023-08-01T07:48:24;92544.28;;;30.22;45.38
3250;BME280;1637;42.020;23.992;2023-08-01T07:50:51;92538.28;;;30.92;43.00
3250;BME280;1637;42.020;23.992;2023-08-01T07:53:18;92540.22;;;29.57;45.66
3250;BME280;1637;42.020;23.992;2023-08-01T07:55:46;92532.03;;;30.44;44.90
3250;BME280;1637;42.020;23.992;2023-08-01T07:58:13;92539.19;;;31.49;42.48
3250;BME280;1637;42.020;23.992;2023-08-01T08:00:40;92534.53;;;31.23;42.74
3250;BME280;1637;42.020;23.992;2023-08-01T08:03:07;92528.63;;;31.68;40.62
3250;BME280;1637;42.020;23.992;2023-08-01T08:05:33;92523.56;;;31.59;42.61
3250;BME280;1637;42.020;23.992;2023-08-01T08:08:04;92526.72;;;32.56;39.74
3250;BME280;1637;42.020;23.992;2023-08-01T08:10:31;92522.59;;;32.06;42.00
3250;BME280;1637;42.020;23.992;2023-08-01T08:12:59;92518.75;;;31.60;41.73
3250;BME280;1637;42.020;23.992;2023-08-01T08:15:26;92522.84;;;31.59;41.04
3250;BME280;1637;42.020;23.992;2023-08-01T08:17:55;92511.22;;;30.98;42.05
3250;BME280;1637;42.020;23.992;2023-08-01T08:20:22;92509.50;;;31.29;42.01
3250;BME280;1637;42.020;23.992;2023-08-01T08:22:48;92509.94;;;31.40;41.36
3250;BME280;1637;42.020;23.992;2023-08-01T08:25:15;92500.50;;;31.85;40.02
3250;BME280;1637;42.020;23.992;2023-08-01T08:27:42;92415.84;;;30.70;41.35
3250;BME280;1637;42.020;23.992;2023-08-01T08:30:11;92483.84;;;31.28;40.83
3250;BME280;1637;42.020;23.992;2023-08-01T08:32:37;92480.78;;;30.98;41.98
3250;BME280;1637;42.020;23.992;2023-08-01T08:35:04;92487.19;;;31.55;41.57
3250;BME280;1637;42.020;23.992;2023-08-01T08:37:31;92481.59;;;31.48;42.09
3250;BME280;1637;42.020;23.992;2023-08-01T08:39:58;92485.97;;;32.36;39.62
3250;BME280;1637;42.020;23.992;2023-08-01T08:42:25;92475.47;;;32.42;38.94
3250;BME280;1637;42.020;23.992;2023-08-01T08:44:55;92449.06;;;30.57;41.16
3250;BME280;1637;42.020;23.992;2023-08-01T08:47:25;92466.50;;;31.77;40.25
3250;BME280;1637;42.020;23.992;2023-08-01T08:49:55;92469.00;;;32.03;38.82
3250;BME280;1637;42.020;23.992;2023-08-01T08:52:22;92467.25;;;31.85;38.88
3250;BME280;1637;42.020;23.992;2023-08-01T08:54:50;92464.91;;;32.33;39.38
3250;BME280;1637;42.020;23.992;2023-08-01T08:57:19;92467.22;;;32.14;38.15
3250;BME280;1637;42.020;23.992;2023-08-01T08:59:47;92473.59;;;33.19;37.55
3250;BME280;1637;42.020;23.992;2023-08-01T09:02:15;92468.59;;;33.47;35.76
3250;BME280;1637;42.020;23.992;2023-08-01T09:04:43;92441.56;;;32.87;39.11
3250;BME280;1637;42.020;23.992;2023-08-01T09:07:10;92468.03;;;32.96;37.29
3250;BME280;1637;42.020;23.992;2023-08-01T09:09:40;92455.09;;;32.32;37.63
3250;BME280;1637;42.020;23.992;2023-08-01T09:12:08;92442.28;;;31.21;39.77
3250;BME280;1637;42.020;23.992;2023-08-01T09:14:35;92452.00;;;31.99;37.89
3250;BME280;1637;42.020;23.992;2023-08-01T09:17:06;92444.91;;;30.64;39.54
3250;BME280;1637;42.020;23.992;2023-08-01T09:19:34;92443.75;;;29.65;41.49
3250;BME280;1637;42.020;23.992;2023-08-01T09:22:10;92433.06;;;29.95;40.64
3250;BME280;1637;42.020;23.992;2023-08-01T09:24:37;92438.97;;;31.01;39.59
3250;BME280;1637;42.020;23.992;2023-08-01T09:27:04;92430.13;;;30.61;38.76
3250;BME280;1637;42.020;23.992;2023-08-01T09:29:31;92454.16;;;31.57;37.76
3250;BME280;1637;42.020;23.992;2023-08-01T09:31:58;92425.22;;;30.88;38.55
3250;BME280;1637;42.020;23.992;2023-08-01T09:34:26;92425.78;;;32.00;36.21
3250;BME280;1637;42.020;23.992;2023-08-01T09:36:58;92398.56;;;31.84;35.69
3250;BME280;1637;42.020;23.992;2023-08-01T09:39:26;92431.13;;;31.34;36.57
3250;BME280;1637;42.020;23.992;2023-08-01T09:41:56;92436.44;;;32.32;35.67
3250;BME280;1637;42.020;23.992;2023-08-01T09:44:23;92429.25;;;31.93;37.43
3250;BME280;1637;42.020;23.992;2023-08-01T09:46:58;92422.09;;;31.33;36.30
3250;BME280;1637;42.020;23.992;2023-08-01T09:49:26;92418.81;;;32.15;34.73
3250;BME280;1637;42.020;23.992;2023-08-01T09:51:53;92419.38;;;32.80;34.42
3250;BME280;1637;42.020;23.992;2023-08-01T09:54:20;92400.09;;;32.66;34.29
3250;BME280;1637;42.020;23.992;2023-08-01T09:56:50;92414.56;;;31.41;36.79
3250;BME280;1637;42.020;23.992;2023-08-01T09:59:20;92428.38;;;32.65;33.81
3250;BME280;1637;42.020;23.992;2023-08-01T10:01:48;92422.09;;;32.72;33.67
3250;BME280;1637;42.020;23.992;2023-08-01T10:04:18;92413.66;;;33.00;32.51
3250;BME280;1637;42.020;23.992;2023-08-01T10:06:48;92413.88;;;32.21;33.60
3250;BME280;1637;42.020;23.992;2023-08-01T10:09:16;92399.69;;;32.39;33.85
3250;BME280;1637;42.020;23.992;2023-08-01T10:11:44;92391.97;;;31.94;33.52
3250;BME280;1637;42.020;23.992;2023-08-01T10:14:12;92387.16;;;32.02;34.09
3250;BME280;1637;42.020;23.992;2023-08-01T10:16:40;92380.28;;;32.47;33.43
3250;BME280;1637;42.020;23.992;2023-08-01T10:19:09;92382.19;;;32.75;32.24
3250;BME280;1637;42.020;23.992;2023-08-01T10:21:37;92377.38;;;32.98;32.67
3250;BME280;1637;42.020;23.992;2023-08-01T10:24:05;92370.91;;;32.96;33.17
3250;BME280;1637;42.020;23.992;2023-08-01T10:26:33;92381.22;;;32.65;32.94
3250;BME280;1637;42.020;23.992;2023-08-01T10:29:00;92367.97;;;31.61;34.76
3250;BME280;1637;42.020;23.992;2023-08-01T10:31:29;92357.66;;;32.13;33.55
3250;BME280;1637;42.020;23.992;2023-08-01T10:34:04;92360.59;;;32.07;33.14
3250;BME280;1637;42.020;23.992;2023-08-01T10:36:31;92330.94;;;32.38;32.97
3250;BME280;1637;42.020;23.992;2023-08-01T10:39:00;92352.38;;;32.37;33.56
3250;BME280;1637;42.020;23.992;2023-08-01T10:41:28;92346.75;;;32.15;33.76
3250;BME280;1637;42.020;23.992;2023-08-01T10:44:10;92350.66;;;32.19;32.64
3250;BME280;1637;42.020;23.992;2023-08-01T10:46:47;92346.75;;;32.15;32.58
3250;BME280;1637;42.020;23.992;2023-08-01T10:49:15;92321.03;;;31.48;32.76
3250;BME280;1637;42.020;23.992;2023-08-01T10:51:42;92329.47;;;31.06;33.11
3250;BME280;1637;42.020;23.992;2023-08-01T10:54:18;92314.88;;;30.77;32.32
3250;BME280;1637;42.020;23.992;2023-08-01T10:56:46;92318.00;;;31.30;32.78
3250;BME280;1637;42.020;23.992;2023-08-01T10:59:14;92316.59;;;31.44;34.73
3250;BME280;1637;42.020;23.992;2023-08-01T11:01:45;92322.56;;;31.64;31.63
3250;BME280;1637;42.020;23.992;2023-08-01T11:04:17;92324.13;;;31.80;32.07
3250;BME280;1637;42.020;23.992;2023-08-01T11:06:48;92327.28;;;31.84;31.60
3250;BME280;1637;42.020;23.992;2023-08-01T11:09:19;92309.25;;;31.98;31.66
3250;BME280;1637;42.020;23.992;2023-08-01T11:11:48;92312.59;;;31.61;33.30
3250;BME280;1637;42.020;23.992;2023-08-01T11:14:16;92297.09;;;31.14;33.41
3250;BME280;1637;42.020;23.992;2023-08-01T11:16:43;92304.72;;;31.72;32.91
3250;BME280;1637;42.020;23.992;2023-08-01T11:19:22;92305.09;;;31.69;33.12
3250;BME280;1637;42.020;23.992;2023-08-01T11:21:49;92306.09;;;31.94;32.57
3250;BME280;1637;42.020;23.992;2023-08-01T11:24:18;92303.31;;;31.94;32.79
3250;BME280;1637;42.020;23.992;2023-08-01T11:26:46;92295.50;;;31.70;33.19
3250;BME280;1637;42.020;23.992;2023-08-01T11:29:14;92299.59;;;31.92;32.56
3250;BME280;1637;42.020;23.992;2023-08-01T11:31:41;92297.31;;;31.67;33.07
3250;BME280;1637;42.020;23.992;2023-08-01T11:34:08;92303.28;;;31.79;31.09
3250;BME280;1637;42.020;23.992;2023-08-01T11:36:36;92296.53;;;32.64;31.83
3250;BME280;1637;42.020;23.992;2023-08-01T11:39:04;92289.72;;;32.88;34.36
3250;BME280;1637;42.020;23.992;2023-08-01T11:41:31;92290.97;;;33.09;35.11
3250;BME280;1637;42.020;23.992;2023-08-01T11:44:02;92292.69;;;32.52;36.16
3250;BME280;1637;42.020;23.992;2023-08-01T11:46:34;92287.06;;;31.98;36.59
3250;BME280;1637;42.020;23.992;2023-08-01T11:49:01;92289.22;;;31.69;37.25
3250;BME280;1637;42.020;23.992;2023-08-01T11:51:29;92277.53;;;31.63;36.82
3250;BME280;1637;42.020;23.992;2023-08-01T11:54:01;92279.84;;;31.44;38.58
3250;BME280;1637;42.020;23.992;2023-08-01T11:56:29;92274.47;;;31.82;38.14
3250;BME280;1637;42.020;23.992;2023-08-01T11:58:55;92282.03;;;31.82;38.50
3250;BME280;1637;42.020;23.992;2023-08-01T12:01:22;92272.63;;;31.33;38.51
3250;BME280;1637;42.020;23.992;2023-08-01T12:03:50;92277.97;;;31.31;38.20
3250;BME280;1637;42.020;23.992;2023-08-01T12:06:19;92276.22;;;31.13;38.86
3250;BME280;1637;42.020;23.992;2023-08-01T12:08:48;92262.59;;;30.58;38.87
3250;BME280;1637;42.020;23.992;2023-08-01T12:11:20;92276.06;;;30.41;39.89
3250;BME280;1637;42.020;23.992;2023-08-01T12:13:47;92274.19;;;30.57;39.87
3250;BME280;1637;42.020;23.992;2023-08-01T12:16:14;92271.91;;;30.27;39.95
3250;BME280;1637;42.020;23.992;2023-08-01T12:18:45;92271.91;;;30.48;40.19
3250;BME280;1637;42.020;23.992;2023-08-01T12:21:13;92280.78;;;30.54;40.37
3250;BME280;1637;42.020;23.992;2023-08-01T12:23:40;92269.47;;;30.44;40.71
3250;BME280;1637;42.020;23.992;2023-08-01T12:26:07;92281.31;;;30.73;39.06
3250;BME280;1637;42.020;23.992;2023-08-01T12:28:35;92282.16;;;30.89;39.60
3250;BME280;1637;42.020;23.992;2023-08-01T12:31:01;92277.91;;;31.16;38.54
3250;BME280;1637;42.020;23.992;2023-08-01T12:33:29;92286.69;;;31.07;38.66
3250;BME280;1637;42.020;23.992;2023-08-01T12:35:55;92278.22;;;30.56;39.46
3250;BME280;1637;42.020;23.992;2023-08-01T12:38:22;92268.94;;;30.46;40.07
3250;BME280;1637;42.020;23.992;2023-08-01T12:40:49;92277.53;;;30.34;40.86
3250;BME280;1637;42.020;23.992;2023-08-01T12:43:16;92277.69;;;30.36;39.98
3250;BME280;1637;42.020;23.992;2023-08-01T12:45:44;92277.28;;;30.74;39.10
3250;BME280;1637;42.020;23.992;2023-08-01T12:48:12;92274.81;;;30.99;39.29
3250;BME280;1637;42.020;23.992;2023-08-01T12:50:43;92272.25;;;31.29;38.04
3250;BME280;1637;42.020;23.992;2023-08-01T12:53:11;92280.31;;;31.20;37.73
3250;BME280;1637;42.020;23.992;2023-08-01T12:55:38;92281.88;;;31.07;37.87
3250;BME280;1637;42.020;23.992;2023-08-01T12:58:04;92285.00;;;31.32;38.01
3250;BME280;1637;42.020;23.992;2023-08-01T13:00:31;92273.66;;;31.15;39.63
3250;BME280;1637;42.020;23.992;2023-08-01T13:03:03;92264.00;;;30.72;39.83
3250;BME280;1637;42.020;23.992;2023-08-01T13:05:30;92275.13;;;30.88;40.52
3250;BME280;1637;42.020;23.992;2023-08-01T13:07:56;92274.66;;;31.33;39.08
3250;BME280;1637;42.020;23.992;2023-08-01T13:10:23;92264.16;;;31.03;40.75